createdAt,value
2023-01-30T00:02:16.411Z,26.98
2023-01-30T00:04:42.673Z,21.08
2023-01-30T00:07:08.951Z,26.70
2023-01-30T00:09:35.066Z,21.08
2023-01-30T00:12:01.272Z,23.52
2023-01-30T00:14:27.439Z,20.90
2023-01-30T00:16:53.640Z,22.30
2023-01-30T00:19:19.778Z,26.90
2023-01-30T00:21:45.962Z,19.80
2023-01-30T00:24:12.183Z,22.58
2023-01-30T00:26:38.431Z,19.30
2023-01-30T00:29:04.698Z,15.63
2023-01-30T00:31:30.883Z,19.08
2023-01-30T00:33:57.097Z,21.85
2023-01-30T00:36:23.373Z,20.13
2023-01-30T00:38:49.513Z,16.40
2023-01-30T00:41:15.684Z,12.50
2023-01-30T00:43:41.844Z,21.05
2023-01-30T00:46:08.101Z,18.80
2023-01-30T00:48:34.279Z,16.77
2023-01-30T00:51:00.409Z,23.35
2023-01-30T00:53:26.564Z,13.40
2023-01-30T00:55:52.715Z,15.48
2023-01-30T00:58:18.935Z,23.00
2023-01-30T01:00:45.153Z,21.38
2023-01-30T01:03:11.473Z,24.05
2023-01-30T01:05:37.611Z,26.08
2023-01-30T01:08:03.754Z,15.77
2023-01-30T01:10:29.949Z,17.30
2023-01-30T01:12:56.109Z,16.83
2023-01-30T01:15:22.287Z,11.38
2023-01-30T01:17:48.447Z,19.90
2023-01-30T01:20:14.587Z,14.57
2023-01-30T01:22:40.744Z,14.60
2023-01-30T01:25:06.931Z,18.77
2023-01-30T01:27:33.093Z,19.23
2023-01-30T01:30:01.160Z,17.15
2023-01-30T01:32:28.319Z,18.88
2023-01-30T01:34:54.521Z,15.02
2023-01-30T01:37:20.662Z,22.25
2023-01-30T01:39:46.879Z,22.58
2023-01-30T01:42:13.051Z,20.58
2023-01-30T01:44:39.167Z,18.08
2023-01-30T01:47:05.361Z,13.35
2023-01-30T01:49:31.567Z,17.65
2023-01-30T01:51:57.758Z,13.10
2023-01-30T01:54:23.935Z,19.65
2023-01-30T01:56:50.143Z,15.80
2023-01-30T01:59:16.514Z,21.88
2023-01-30T02:01:42.717Z,19.30
2023-01-30T02:04:08.909Z,17.95
2023-01-30T02:06:35.465Z,19.17
2023-01-30T02:09:01.644Z,13.40
2023-01-30T02:11:27.863Z,24.35
2023-01-30T02:13:54.026Z,10.60
2023-01-30T02:16:20.212Z,13.65
2023-01-30T02:18:46.357Z,16.95
2023-01-30T02:21:12.599Z,22.58
2023-01-30T02:23:38.769Z,15.77
2023-01-30T02:26:05.038Z,26.65
2023-01-30T02:28:31.220Z,24.85
2023-01-30T02:30:57.431Z,17.65
2023-01-30T02:33:23.599Z,20.52
2023-01-30T02:35:49.774Z,16.23
2023-01-30T02:38:15.972Z,22.20
2023-01-30T02:40:42.170Z,13.60
2023-01-30T02:43:08.324Z,14.68
2023-01-30T02:45:34.499Z,14.18
2023-01-30T02:48:00.682Z,14.95
2023-01-30T02:50:26.881Z,22.08
2023-01-30T02:52:53.030Z,17.48
2023-01-30T02:55:19.602Z,20.00
2023-01-30T02:57:45.827Z,27.77
2023-01-30T03:00:11.977Z,20.85
2023-01-30T03:02:38.156Z,23.25
2023-01-30T03:05:04.429Z,24.75
2023-01-30T03:07:30.620Z,20.63
2023-01-30T03:09:56.750Z,19.55
2023-01-30T03:12:23.153Z,17.50
2023-01-30T03:14:49.407Z,26.92
2023-01-30T03:17:15.629Z,22.85
2023-01-30T03:19:41.838Z,22.27
2023-01-30T03:22:07.978Z,27.40
2023-01-30T03:24:34.142Z,22.58
2023-01-30T03:27:00.288Z,27.67
2023-01-30T03:29:26.486Z,13.30
2023-01-30T03:31:52.631Z,19.30
2023-01-30T03:34:18.812Z,23.73
2023-01-30T03:36:44.929Z,20.77
2023-01-30T03:39:11.113Z,19.25
2023-01-30T03:41:37.335Z,17.67
2023-01-30T03:44:03.515Z,23.85
2023-01-30T03:46:29.768Z,16.75
2023-01-30T03:48:55.965Z,23.38
2023-01-30T03:51:22.096Z,21.77
2023-01-30T03:53:48.257Z,14.00
2023-01-30T03:56:14.569Z,19.13
2023-01-30T03:58:40.759Z,21.88
2023-01-30T04:01:06.936Z,13.15
2023-01-30T04:03:33.098Z,11.77
2023-01-30T04:05:59.287Z,18.33
2023-01-30T04:08:25.453Z,17.13
2023-01-30T04:10:51.650Z,21.10
2023-01-30T04:13:17.831Z,16.85
2023-01-30T04:15:44.022Z,21.25
2023-01-30T04:18:10.147Z,20.63
2023-01-30T04:20:36.338Z,19.92
2023-01-30T04:23:02.499Z,14.23
2023-01-30T04:25:28.703Z,15.75
2023-01-30T04:27:54.936Z,14.88
2023-01-30T04:30:21.153Z,19.88
2023-01-30T04:32:47.374Z,19.40
2023-01-30T04:35:13.527Z,18.83
2023-01-30T04:37:39.660Z,10.15
2023-01-30T04:40:05.800Z,14.32
2023-01-30T04:42:31.942Z,21.15
2023-01-30T04:44:58.122Z,15.43
2023-01-30T04:47:24.383Z,11.50
2023-01-30T04:49:50.510Z,19.73
2023-01-30T04:52:16.687Z,17.00
2023-01-30T04:54:42.851Z,11.60
2023-01-30T04:57:08.993Z,17.75
2023-01-30T04:59:35.139Z,20.60
2023-01-30T05:02:01.417Z,20.15
2023-01-30T05:04:27.653Z,16.58
2023-01-30T05:06:53.850Z,15.45
2023-01-30T05:09:20.002Z,17.08
2023-01-30T05:11:46.141Z,18.13
2023-01-30T05:14:12.457Z,19.05
2023-01-30T05:16:38.639Z,16.65
2023-01-30T05:19:04.854Z,19.90
2023-01-30T05:21:31.055Z,22.48
2023-01-30T05:23:57.212Z,16.42
2023-01-30T05:26:23.387Z,21.73
2023-01-30T05:28:49.828Z,19.02
2023-01-30T05:31:16.076Z,19.48
2023-01-30T05:33:42.264Z,20.27
2023-01-30T05:36:08.438Z,18.13
2023-01-30T05:38:34.622Z,10.75
2023-01-30T05:41:00.805Z,11.98
2023-01-30T05:43:26.994Z,12.45
2023-01-30T05:45:53.188Z,16.90
2023-01-30T05:48:19.394Z,15.30
2023-01-30T05:50:45.564Z,13.93
2023-01-30T05:53:11.718Z,21.48
2023-01-30T05:55:37.959Z,16.25
2023-01-30T05:58:04.134Z,17.45
2023-01-30T06:00:30.571Z,14.82
2023-01-30T06:02:56.805Z,13.80
2023-01-30T06:05:22.988Z,18.25
2023-01-30T06:07:49.157Z,16.20
2023-01-30T06:10:15.384Z,13.55
2023-01-30T06:12:41.569Z,13.75
2023-01-30T06:15:07.734Z,13.02
2023-01-30T06:17:33.893Z,13.77
2023-01-30T06:20:00.126Z,12.15
2023-01-30T06:22:26.254Z,15.95
2023-01-30T06:24:52.424Z,17.95
2023-01-30T06:27:18.551Z,15.32
2023-01-30T06:29:44.714Z,19.10
2023-01-30T06:32:10.893Z,15.70
2023-01-30T06:34:37.041Z,18.52
2023-01-30T06:37:03.187Z,18.92
2023-01-30T06:39:29.339Z,18.92
2023-01-30T06:41:55.553Z,13.40
2023-01-30T06:44:21.720Z,11.70
2023-01-30T06:46:47.933Z,16.02
2023-01-30T06:49:14.130Z,16.17
2023-01-30T06:51:40.278Z,12.70
2023-01-30T06:54:06.479Z,13.57
2023-01-30T06:56:32.684Z,10.98
2023-01-30T06:58:58.833Z,12.65
2023-01-30T07:01:25.002Z,10.88
2023-01-30T07:03:51.169Z,16.45
2023-01-30T07:06:17.326Z,11.88
2023-01-30T07:08:43.560Z,14.77
2023-01-30T07:11:09.686Z,10.93
2023-01-30T07:13:35.861Z,12.88
2023-01-30T07:16:02.108Z,13.80
2023-01-30T07:18:28.313Z,13.13
2023-01-30T07:20:54.504Z,14.52
2023-01-30T07:23:20.758Z,8.05
2023-01-30T07:25:46.932Z,11.85
2023-01-30T07:28:13.067Z,17.13
2023-01-30T07:30:39.284Z,12.93
2023-01-30T07:33:05.477Z,12.45
2023-01-30T07:35:31.647Z,16.45
2023-01-30T07:37:57.820Z,13.60
2023-01-30T07:40:23.986Z,14.60
2023-01-30T07:42:50.156Z,13.90
2023-01-30T07:45:16.493Z,14.32
2023-01-30T07:47:42.818Z,12.55
2023-01-30T07:50:09.001Z,15.27
2023-01-30T07:52:35.185Z,15.57
2023-01-30T07:55:01.769Z,15.27
2023-01-30T07:57:28.003Z,12.63
2023-01-30T07:59:54.702Z,12.95
2023-01-30T08:02:20.870Z,11.25
2023-01-30T08:04:47.042Z,14.93
2023-01-30T08:07:13.226Z,10.70
2023-01-30T08:09:39.417Z,11.55
2023-01-30T08:12:05.657Z,9.55
2023-01-30T08:14:31.818Z,15.13
2023-01-30T08:16:58.032Z,17.35
2023-01-30T08:19:24.379Z,14.40
2023-01-30T08:21:50.577Z,13.88
2023-01-30T08:24:16.802Z,12.85
2023-01-30T08:26:43.040Z,16.70
2023-01-30T08:29:09.289Z,15.18
2023-01-30T08:31:35.578Z,13.43
2023-01-30T08:34:01.821Z,19.33
2023-01-30T08:36:28.002Z,13.32
2023-01-30T08:38:54.175Z,9.77
2023-01-30T08:41:20.387Z,15.35
2023-01-30T08:43:46.603Z,11.10
2023-01-30T08:46:12.904Z,18.63
2023-01-30T08:48:49.098Z,9.30
2023-01-30T08:51:16.278Z,10.38
2023-01-30T08:53:42.494Z,12.10
2023-01-30T08:56:08.753Z,14.65
2023-01-30T08:58:34.944Z,10.55
2023-01-30T09:01:01.159Z,12.48
2023-01-30T09:03:27.342Z,14.55
2023-01-30T09:05:53.537Z,19.15
2023-01-30T09:08:19.764Z,17.60
2023-01-30T09:10:45.944Z,12.93
2023-01-30T09:13:12.142Z,12.93
2023-01-30T09:15:38.362Z,12.02
2023-01-30T09:18:04.538Z,18.67
2023-01-30T09:20:30.674Z,17.05
2023-01-30T09:22:56.840Z,13.32
2023-01-30T09:25:23.028Z,23.52
2023-01-30T09:27:49.206Z,15.05
2023-01-30T09:30:15.401Z,14.32
2023-01-30T09:32:41.565Z,7.82
2023-01-30T09:35:07.757Z,13.68
2023-01-30T09:37:33.991Z,13.00
2023-01-30T09:40:00.161Z,16.30
2023-01-30T09:42:26.361Z,11.07
2023-01-30T09:44:52.560Z,11.43
2023-01-30T09:47:18.778Z,12.40
2023-01-30T09:49:44.992Z,11.18
2023-01-30T09:52:11.355Z,8.75
2023-01-30T09:54:37.937Z,10.30
2023-01-30T09:57:04.129Z,15.80
2023-01-30T09:59:30.310Z,12.63
2023-01-30T10:01:56.459Z,10.23
2023-01-30T10:04:22.648Z,9.98
2023-01-30T10:06:48.843Z,15.90
2023-01-30T10:09:15.055Z,9.80
2023-01-30T10:11:41.265Z,12.00
2023-01-30T10:14:08.452Z,8.25
2023-01-30T10:16:34.654Z,16.98
2023-01-30T10:19:00.854Z,8.77
2023-01-30T10:21:27.031Z,10.13
2023-01-30T10:23:53.192Z,9.50
2023-01-30T10:26:19.390Z,10.75
2023-01-30T10:28:49.815Z,13.48
2023-01-30T10:31:18.620Z,12.25
2023-01-30T10:33:44.980Z,9.93
2023-01-30T10:36:11.219Z,13.45
2023-01-30T10:38:37.402Z,12.38
2023-01-30T10:41:03.572Z,14.90
2023-01-30T10:43:29.748Z,11.88
2023-01-30T10:45:55.949Z,11.77
2023-01-30T10:48:24.674Z,13.15
2023-01-30T10:50:57.548Z,14.35
2023-01-30T10:53:23.769Z,11.95
2023-01-30T10:55:49.962Z,11.55
2023-01-30T10:58:16.176Z,14.38
2023-01-30T11:00:42.343Z,8.35
2023-01-30T11:03:08.528Z,10.18
2023-01-30T11:05:34.778Z,11.85
2023-01-30T11:08:00.921Z,9.35
2023-01-30T11:10:27.102Z,9.80
2023-01-30T11:12:53.289Z,8.77
2023-01-30T11:15:19.732Z,12.30
2023-01-30T11:17:46.030Z,8.18
2023-01-30T11:20:13.583Z,10.50
2023-01-30T11:22:40.040Z,10.80
2023-01-30T11:25:06.235Z,15.52
2023-01-30T11:27:32.435Z,17.77
2023-01-30T11:29:58.618Z,14.50
2023-01-30T11:32:24.832Z,10.45
2023-01-30T11:34:51.091Z,13.32
2023-01-30T11:37:19.217Z,8.48
2023-01-30T11:39:45.435Z,13.98
2023-01-30T11:42:11.736Z,6.97
2023-01-30T11:44:37.902Z,13.60
2023-01-30T11:47:06.782Z,14.15
2023-01-30T11:49:46.654Z,8.25
2023-01-30T11:52:22.761Z,8.05
2023-01-30T11:54:48.917Z,11.27
2023-01-30T11:57:15.097Z,14.23
2023-01-30T11:59:41.294Z,11.07
2023-01-30T12:02:07.550Z,10.75
2023-01-30T12:04:33.822Z,7.45
2023-01-30T12:07:01.075Z,7.97
2023-01-30T12:09:27.325Z,10.82
2023-01-30T12:11:53.551Z,10.70
2023-01-30T12:14:19.708Z,6.97
2023-01-30T12:16:46.141Z,13.35
2023-01-30T12:19:12.456Z,10.68
2023-01-30T12:21:38.680Z,8.95
2023-01-30T12:24:04.873Z,9.23
2023-01-30T12:26:31.153Z,13.10
2023-01-30T12:28:57.404Z,9.35
2023-01-30T12:31:23.543Z,11.55
2023-01-30T12:33:49.716Z,11.25
2023-01-30T12:36:15.924Z,10.38
2023-01-30T12:38:42.287Z,10.75
2023-01-30T12:41:08.453Z,9.75
2023-01-30T12:43:34.726Z,8.85
2023-01-30T12:46:01.089Z,11.68
2023-01-30T12:48:27.288Z,9.18
2023-01-30T12:50:53.487Z,14.20
2023-01-30T12:53:19.777Z,9.43
2023-01-30T12:55:46.058Z,6.80
2023-01-30T12:58:12.230Z,9.35
2023-01-30T13:00:38.434Z,10.18
2023-01-30T13:03:04.656Z,8.63
2023-01-30T13:05:30.891Z,11.32
2023-01-30T13:07:57.113Z,9.35
2023-01-30T13:10:23.737Z,10.55
2023-01-30T13:12:50.080Z,8.45
2023-01-30T13:15:16.217Z,9.10
2023-01-30T13:17:42.416Z,9.95
2023-01-30T13:20:08.636Z,6.95
2023-01-30T13:22:34.899Z,11.43
2023-01-30T13:25:01.172Z,6.70
2023-01-30T13:27:27.356Z,7.68
2023-01-30T13:29:53.543Z,9.90
2023-01-30T13:32:19.781Z,11.38
2023-01-30T13:34:46.033Z,6.60
2023-01-30T13:37:12.223Z,12.38
2023-01-30T13:39:42.311Z,9.75
2023-01-30T13:42:08.874Z,7.38
2023-01-30T13:44:38.071Z,9.88
2023-01-30T13:47:05.493Z,9.18
2023-01-30T13:49:31.662Z,7.40
2023-01-30T13:51:57.833Z,6.78
2023-01-30T13:54:24.017Z,6.53
2023-01-30T13:56:50.161Z,6.50
2023-01-30T13:59:16.373Z,6.07
2023-01-30T14:01:42.744Z,5.85
2023-01-30T14:04:09.090Z,9.13
2023-01-30T14:06:35.346Z,7.43
2023-01-30T14:09:01.597Z,6.22
2023-01-30T14:11:27.840Z,8.48
2023-01-30T14:13:54.005Z,7.05
2023-01-30T14:16:20.250Z,6.57
2023-01-30T14:18:46.410Z,8.30
2023-01-30T14:21:12.605Z,23.80
2023-01-30T14:23:38.976Z,8.50
2023-01-30T14:26:05.197Z,6.75
2023-01-30T14:28:31.417Z,8.65
2023-01-30T14:30:57.645Z,7.65
2023-01-30T14:33:23.857Z,4.75
2023-01-30T14:35:50.054Z,5.80
2023-01-30T14:38:16.271Z,6.18
2023-01-30T14:40:42.471Z,5.32
2023-01-30T14:43:08.703Z,7.43
2023-01-30T14:45:34.899Z,7.22
2023-01-30T14:48:04.211Z,7.82
2023-01-30T14:50:30.403Z,6.28
2023-01-30T14:52:56.601Z,4.80
2023-01-30T14:55:22.812Z,5.05
2023-01-30T14:57:48.997Z,6.75
2023-01-30T15:00:17.960Z,4.65
2023-01-30T15:02:44.826Z,6.82
2023-01-30T15:05:11.036Z,6.25
2023-01-30T15:07:37.237Z,6.10
2023-01-30T15:10:03.461Z,5.90
2023-01-30T15:12:29.760Z,5.35
2023-01-30T15:14:55.969Z,5.53
2023-01-30T15:17:22.164Z,7.15
2023-01-30T15:19:48.396Z,9.07
2023-01-30T15:22:14.590Z,6.68
2023-01-30T15:24:40.798Z,7.53
2023-01-30T15:27:07.253Z,5.18
2023-01-30T15:29:33.480Z,9.23
2023-01-30T15:32:02.294Z,8.52
2023-01-30T15:34:28.574Z,8.82
2023-01-30T15:36:54.737Z,9.00
2023-01-30T15:39:20.912Z,7.95
2023-01-30T15:41:47.114Z,9.20
2023-01-30T15:44:13.280Z,7.97
2023-01-30T15:46:39.497Z,8.63
2023-01-30T15:49:05.688Z,7.07
2023-01-30T15:51:31.937Z,10.40
2023-01-30T15:53:58.164Z,8.60
2023-01-30T15:56:24.391Z,8.73
2023-01-30T15:58:50.583Z,12.50
2023-01-30T16:01:16.833Z,7.57
2023-01-30T16:03:43.040Z,13.38
2023-01-30T16:06:09.215Z,7.22
2023-01-30T16:08:35.382Z,6.88
2023-01-30T16:11:01.674Z,11.73
2023-01-30T16:13:27.907Z,13.15
2023-01-30T16:15:54.098Z,11.15
2023-01-30T16:18:20.336Z,14.13
2023-01-30T16:21:00.056Z,10.68
2023-01-30T16:23:27.282Z,10.43
2023-01-30T16:25:53.436Z,12.80
2023-01-30T16:28:19.656Z,7.97
2023-01-30T16:30:46.003Z,9.18
2023-01-30T16:33:12.343Z,9.63
2023-01-30T16:35:38.575Z,7.43
2023-01-30T16:38:04.784Z,11.88
2023-01-30T16:40:31.029Z,9.40
2023-01-30T16:42:57.188Z,10.23
2023-01-30T16:45:23.392Z,7.68
2023-01-30T16:47:49.533Z,9.95
2023-01-30T16:50:15.919Z,9.00
2023-01-30T16:52:42.240Z,10.25
2023-01-30T16:55:08.462Z,12.35
2023-01-30T16:57:34.635Z,13.20
2023-01-30T17:00:00.861Z,6.70
2023-01-30T17:02:27.018Z,9.48
2023-01-30T17:04:53.226Z,7.03
2023-01-30T17:07:19.372Z,8.80
2023-01-30T17:09:45.557Z,11.35
2023-01-30T17:12:11.854Z,9.20
2023-01-30T17:14:38.076Z,10.30
2023-01-30T17:17:04.206Z,9.90
2023-01-30T17:19:30.478Z,11.52
2023-01-30T17:21:56.769Z,9.93
2023-01-30T17:24:23.108Z,9.40
2023-01-30T17:26:49.385Z,7.93
2023-01-30T17:29:29.028Z,8.75
2023-01-30T17:32:01.870Z,8.88
2023-01-30T17:34:28.935Z,9.60
2023-01-30T17:36:55.216Z,9.60
2023-01-30T17:39:21.439Z,8.93
2023-01-30T17:41:47.636Z,14.02
2023-01-30T17:44:13.802Z,6.20
2023-01-30T17:46:40.096Z,9.63
2023-01-30T17:49:06.330Z,10.88
2023-01-30T17:51:32.578Z,7.93
2023-01-30T17:53:58.862Z,10.13
2023-01-30T17:56:25.045Z,6.75
2023-01-30T17:58:51.216Z,10.68
2023-01-30T18:01:17.488Z,11.57
2023-01-30T18:03:44.864Z,10.13
2023-01-30T18:06:11.165Z,10.82
2023-01-30T18:08:37.436Z,11.55
2023-01-30T18:11:03.660Z,11.68
2023-01-30T18:13:32.016Z,11.25
2023-01-30T18:16:01.387Z,9.48
2023-01-30T18:18:27.665Z,10.13
2023-01-30T18:20:53.850Z,14.02
2023-01-30T18:23:20.038Z,7.90
2023-01-30T18:25:46.188Z,16.10
2023-01-30T18:28:12.515Z,13.15
2023-01-30T18:30:49.214Z,9.88
2023-01-30T18:33:15.461Z,10.10
2023-01-30T18:35:41.748Z,10.27
2023-01-30T18:38:07.912Z,10.68
2023-01-30T18:40:34.147Z,13.65
2023-01-30T18:43:00.353Z,8.82
2023-01-30T18:45:26.589Z,15.63
2023-01-30T18:47:52.770Z,12.63
2023-01-30T18:50:19.389Z,15.40
2023-01-30T18:52:45.858Z,15.40
2023-01-30T18:55:12.119Z,14.15
2023-01-30T18:57:38.329Z,16.20
2023-01-30T19:00:04.667Z,6.07
2023-01-30T19:02:30.852Z,11.52
2023-01-30T19:04:57.045Z,11.32
2023-01-30T19:07:23.263Z,10.93
2023-01-30T19:09:49.426Z,10.85
2023-01-30T19:12:16.761Z,14.40
2023-01-30T19:14:42.965Z,12.35
2023-01-30T19:17:19.286Z,13.32
2023-01-30T19:19:45.885Z,13.88
2023-01-30T19:22:12.126Z,14.07
2023-01-30T19:24:38.293Z,14.18
2023-01-30T19:27:04.604Z,13.10
2023-01-30T19:29:30.858Z,12.18
2023-01-30T19:31:57.144Z,10.70
2023-01-30T19:34:23.401Z,9.48
2023-01-30T19:36:49.797Z,12.60
2023-01-30T19:39:16.281Z,12.88
2023-01-30T19:41:42.534Z,13.50
2023-01-30T19:44:08.778Z,16.40
2023-01-30T19:46:35.059Z,15.50
2023-01-30T19:49:01.599Z,12.15
2023-01-30T19:51:27.856Z,15.05
2023-01-30T19:53:54.087Z,9.18
2023-01-30T19:56:20.352Z,8.88
2023-01-30T19:58:46.473Z,11.98
2023-01-30T20:01:12.648Z,15.60
2023-01-30T20:03:38.832Z,13.85
2023-01-30T20:06:07.684Z,14.15
2023-01-30T20:08:34.958Z,9.75
2023-01-30T20:11:02.573Z,14.40
2023-01-30T20:13:28.772Z,20.98
2023-01-30T20:15:54.967Z,18.80
2023-01-30T20:18:21.135Z,16.40
2023-01-30T20:20:47.324Z,10.88
2023-01-30T20:23:13.501Z,12.57
2023-01-30T20:25:41.098Z,20.98
2023-01-30T20:28:07.267Z,14.40
2023-01-30T20:30:34.113Z,16.25
2023-01-30T20:33:00.345Z,14.90
2023-01-30T20:35:26.578Z,12.10
2023-01-30T20:37:52.894Z,15.13
2023-01-30T20:40:19.461Z,13.98
2023-01-30T20:42:45.972Z,10.23
2023-01-30T20:45:12.197Z,14.48
2023-01-30T20:47:39.642Z,16.30
2023-01-30T20:50:05.825Z,14.05
2023-01-30T20:52:32.315Z,13.75
2023-01-30T20:54:58.618Z,14.45
2023-01-30T20:57:25.259Z,19.73
2023-01-30T20:59:51.521Z,14.00
2023-01-30T21:02:17.835Z,13.02
2023-01-30T21:04:44.067Z,16.25
2023-01-30T21:07:10.364Z,14.18
2023-01-30T21:09:36.978Z,24.55
2023-01-30T21:12:03.219Z,19.25
2023-01-30T21:14:29.378Z,19.20
2023-01-30T21:16:55.631Z,14.65
2023-01-30T21:19:24.898Z,22.13
2023-01-30T21:21:51.515Z,15.90
2023-01-30T21:24:17.858Z,17.25
2023-01-30T21:26:44.052Z,17.58
2023-01-30T21:29:10.324Z,16.05
2023-01-30T21:31:37.541Z,19.98
2023-01-30T21:34:03.973Z,22.67
2023-01-30T21:36:30.200Z,21.52
2023-01-30T21:38:56.423Z,14.63
2023-01-30T21:41:22.693Z,11.07
2023-01-30T21:43:48.851Z,10.73
2023-01-30T21:46:15.073Z,13.70
2023-01-30T21:48:41.272Z,10.70
2023-01-30T21:51:07.472Z,15.63
2023-01-30T21:53:33.670Z,14.50
2023-01-30T21:55:59.855Z,12.30
2023-01-30T21:58:26.082Z,13.85
2023-01-30T22:00:52.323Z,22.88
2023-01-30T22:03:18.695Z,13.02
2023-01-30T22:05:44.909Z,17.90
2023-01-30T22:08:11.154Z,17.35
2023-01-30T22:10:39.830Z,11.38
2023-01-30T22:13:06.053Z,14.52
2023-01-30T22:15:32.272Z,19.45
2023-01-30T22:17:58.611Z,13.45
2023-01-30T22:20:24.811Z,13.68
2023-01-30T22:22:50.987Z,19.65
2023-01-30T22:25:17.377Z,16.35
2023-01-30T22:27:43.799Z,11.25
2023-01-30T22:30:09.971Z,14.00
2023-01-30T22:32:36.246Z,15.23
2023-01-30T22:35:02.457Z,16.15
2023-01-30T22:37:28.684Z,14.07
2023-01-30T22:39:54.899Z,12.68
2023-01-30T22:42:21.112Z,18.35
2023-01-30T22:44:47.368Z,14.48
2023-01-30T22:47:13.627Z,21.90
2023-01-30T22:49:39.905Z,17.23
2023-01-30T22:52:06.071Z,19.35
2023-01-30T22:54:32.281Z,15.77
2023-01-30T22:56:58.519Z,26.85
2023-01-30T22:59:24.719Z,18.92
2023-01-30T23:01:50.910Z,19.42
2023-01-30T23:04:17.080Z,19.80
2023-01-30T23:06:43.286Z,21.65
2023-01-30T23:09:09.460Z,17.10
2023-01-30T23:11:35.732Z,25.83
2023-01-30T23:14:01.983Z,11.55
2023-01-30T23:16:28.246Z,11.90
2023-01-30T23:18:54.468Z,15.80
2023-01-30T23:21:20.679Z,21.38
2023-01-30T23:23:46.821Z,13.90
2023-01-30T23:26:13.112Z,9.85
2023-01-30T23:28:39.395Z,18.08
2023-01-30T23:31:05.639Z,17.45
2023-01-30T23:33:31.845Z,17.83
2023-01-30T23:35:58.067Z,18.38
2023-01-30T23:38:24.254Z,18.02
2023-01-30T23:40:50.478Z,14.70
2023-01-30T23:43:16.662Z,20.42
2023-01-30T23:45:42.803Z,24.27
2023-01-30T23:48:09.011Z,18.00
2023-01-30T23:50:35.273Z,15.10
2023-01-30T23:53:01.424Z,19.83
2023-01-30T23:55:27.591Z,15.82
2023-01-30T23:57:53.771Z,22.60
